L'image de la webcam se met à jour toutes les 30s.
La jauge météo se met à jour toutes les 10s d'après les données envoyées par la station météo du club.
Les graphiques se mettent à jour toutes les 5min et ne s'affichent que si la station est en ligne
Surfaces en herbe impraticables. 
MAJ le 13/04/2021 11h00 DDE
METAR de LFRD (Source NOAA)
LFRD 151130Z AUTO 08011KT 040V120 9999 BKN042 09/M01 Q1030 TEMPO 06015G25KT

TAF de LFRD (Source NOAA)
TAF LFRD 151100Z 1512/1612 06012KT 9999 BKN040 PROB40 TEMPO 1512/1515 06015G25KT TEMPO 1515/1521 06015G25KT PROB30 TEMPO 1602/1606 3000 BR BECMG 1600/1602 06005KT BECMG 1607/1609 06010KT
Ayez la webcam en fond d'écran de votre téléphone ou de votre tablette Android avec l'appli du club.